Time;durP1;ratioP1;P1;durP2;ratioP2;P2;SDS_P1;SDS_P2;PMS_P1;PMS_P2;Temp;Humidity;BMP_temperature;BMP_pressure;BME280_temperature;BME280_humidity;BME280_pressure;Samples;Min_cycle;Max_cycle;Signal;HPM_P1;HPM_P2
2024/03/05 00:01:37;;;;;;;112.90;38.60;;;8.20;99.90;;;;;;4983238;28;20096;-66
2024/03/05 00:04:06;;;;;;;115.32;38.28;;;8.20;99.90;;;;;;4979962;28;20467;-66
2024/03/05 00:06:32;;;;;;;98.97;36.95;;;8.20;99.90;;;;;;5001816;28;20487;-66
2024/03/05 00:08:59;;;;;;;94.90;36.20;;;8.10;99.90;;;;;;4965700;28;20041;-66
2024/03/05 00:11:25;;;;;;;101.38;37.00;;;8.20;99.90;;;;;;4984292;28;20053;-66
2024/03/05 00:13:54;;;;;;;87.40;35.40;;;8.10;99.90;;;;;;4985561;28;20132;-66
2024/03/05 00:16:23;;;;;;;114.97;37.65;;;8.10;99.90;;;;;;5002915;28;20041;-66
2024/03/05 00:18:48;;;;;;;109.25;38.60;;;8.10;99.90;;;;;;4981670;28;20054;-67
2024/03/05 00:21:14;;;;;;;103.47;37.80;;;8.10;99.90;;;;;;4984509;28;20049;-66
2024/03/05 00:23:40;;;;;;;101.63;37.65;;;8.10;99.90;;;;;;5002542;28;20241;-67
2024/03/05 00:26:06;;;;;;;103.50;36.90;;;8.10;99.90;;;;;;4968687;28;20053;-66
2024/03/05 00:28:35;;;;;;;106.03;38.70;;;8.20;99.90;;;;;;4983950;28;20057;-66
2024/03/05 00:31:01;;;;;;;91.97;36.17;;;8.10;99.90;;;;;;4985937;28;20089;-66
2024/03/05 00:33:27;;;;;;;110.97;39.83;;;8.10;99.90;;;;;;4985202;28;20046;-66
2024/03/05 00:35:54;;;;;;;110.00;40.55;;;8.10;99.90;;;;;;4977597;28;20062;-66
2024/03/05 00:38:20;;;;;;;108.97;38.45;;;8.20;99.90;;;;;;4960746;28;20517;-66
2024/03/05 00:40:46;;;;;;;121.50;39.13;;;8.20;99.90;;;;;;4981735;28;20042;-67
2024/03/05 00:43:12;;;;;;;113.80;40.15;;;8.20;99.90;;;;;;4981399;28;20042;-66
2024/03/05 00:45:37;;;;;;;99.72;36.67;;;8.10;99.90;;;;;;4964474;28;20043;-66
2024/03/05 00:48:03;;;;;;;103.60;37.95;;;8.20;99.90;;;;;;4981735;28;20310;-66
2024/03/05 00:50:29;;;;;;;110.30;36.35;;;8.20;99.90;;;;;;4961613;28;20047;-66
2024/03/05 00:52:55;;;;;;;109.43;37.50;;;8.20;99.90;;;;;;4955929;28;20389;-66
2024/03/05 00:55:21;;;;;;;113.85;40.20;;;8.20;99.90;;;;;;4963310;28;20405;-66
2024/03/05 00:57:47;;;;;;;113.60;38.63;;;8.20;99.90;;;;;;4940930;28;20134;-66
2024/03/05 01:00:13;;;;;;;102.43;39.00;;;8.10;99.90;;;;;;4948275;28;20078;-66
2024/03/05 01:02:42;;;;;;;96.30;36.83;;;8.10;99.90;;;;;;4958198;28;20460;-66
2024/03/05 01:05:09;;;;;;;102.53;39.03;;;8.10;99.90;;;;;;4963719;28;20038;-66
2024/03/05 01:07:39;;;;;;;102.85;38.63;;;8.20;99.90;;;;;;4981576;28;20701;-66
2024/03/05 01:10:05;;;;;;;101.55;36.35;;;8.10;99.90;;;;;;4964960;28;20134;-67
2024/03/05 01:12:32;;;;;;;110.50;36.88;;;8.10;99.90;;;;;;4972583;28;20039;-66
2024/03/05 01:14:58;;;;;;;104.13;35.65;;;8.10;99.90;;;;;;4980427;28;20057;-66
2024/03/05 01:17:26;;;;;;;93.85;36.50;;;8.10;99.90;;;;;;4981646;28;20161;-66
2024/03/05 01:19:53;;;;;;;104.63;36.40;;;8.20;99.90;;;;;;4981052;28;20043;-67
2024/03/05 01:22:19;;;;;;;106.28;36.55;;;8.10;99.90;;;;;;4965656;28;20056;-66
2024/03/05 01:24:46;;;;;;;91.43;34.13;;;8.10;99.90;;;;;;4984790;28;20392;-66
2024/03/05 01:27:11;;;;;;;86.55;32.88;;;8.10;99.90;;;;;;4941277;28;20149;-66
2024/03/05 01:29:40;;;;;;;82.65;30.48;;;8.10;99.90;;;;;;4967410;28;20105;-66
2024/03/05 01:32:07;;;;;;;84.47;33.83;;;8.10;99.90;;;;;;4963920;28;20047;-66
2024/03/05 01:34:37;;;;;;;85.47;34.05;;;8.10;99.90;;;;;;4959807;28;20128;-66
2024/03/05 01:37:03;;;;;;;110.47;37.90;;;8.20;99.90;;;;;;4957358;28;20165;-66
2024/03/05 01:39:30;;;;;;;91.20;35.15;;;8.10;99.90;;;;;;4967615;28;20485;-66
2024/03/05 01:41:56;;;;;;;82.57;33.25;;;8.20;99.90;;;;;;4963644;28;20050;-66
2024/03/05 01:44:23;;;;;;;82.70;32.55;;;8.10;99.90;;;;;;4967282;28;20061;-66
2024/03/05 01:46:52;;;;;;;77.43;32.50;;;8.10;99.90;;;;;;4966251;28;20038;-66
2024/03/05 01:49:19;;;;;;;59.58;29.60;;;8.10;99.90;;;;;;4985142;28;20050;-66
2024/03/05 01:51:46;;;;;;;60.20;27.98;;;8.20;99.90;;;;;;4984203;28;20046;-66
2024/03/05 01:54:17;;;;;;;53.05;27.15;;;8.20;99.90;;;;;;4983731;28;20453;-66
2024/03/05 01:56:49;;;;;;;46.45;26.27;;;8.10;99.90;;;;;;4983415;28;20500;-66
2024/03/05 01:59:17;;;;;;;45.63;24.33;;;8.10;99.90;;;;;;4997672;28;20120;-66
2024/03/05 02:01:44;;;;;;;49.20;24.75;;;8.10;99.90;;;;;;4966402;28;20046;-67
2024/03/05 02:04:10;;;;;;;41.42;22.70;;;8.00;99.90;;;;;;4964963;28;20754;-66
2024/03/05 02:06:41;;;;;;;43.15;24.40;;;8.00;99.90;;;;;;4974708;28;20161;-66
2024/03/05 02:09:12;;;;;;;;;;;8.00;99.90;;;;;;4984428;28;20042;-67
2024/03/05 02:11:42;;;;;;;38.20;23.13;;;8.00;99.90;;;;;;4966513;28;19926;-67
2024/03/05 02:14:09;;;;;;;47.03;22.98;;;8.00;99.90;;;;;;4931451;28;20555;-67
2024/03/05 02:16:35;;;;;;;44.22;22.92;;;7.90;99.90;;;;;;4984422;28;20057;-67
2024/03/05 02:19:03;;;;;;;39.15;22.45;;;8.00;99.90;;;;;;4981418;28;20132;-67
2024/03/05 02:21:29;;;;;;;40.60;21.92;;;7.90;99.90;;;;;;4966091;28;20054;-67
2024/03/05 02:23:55;;;;;;;38.17;23.48;;;7.90;99.90;;;;;;4960496;28;20081;-67
2024/03/05 02:26:23;;;;;;;37.42;22.88;;;7.90;99.90;;;;;;4981873;28;20048;-67
2024/03/05 02:28:49;;;;;;;44.33;22.48;;;7.90;99.90;;;;;;4949422;28;20050;-67
2024/03/05 02:31:15;;;;;;;49.85;23.95;;;7.90;99.90;;;;;;4966476;28;20836;-67
2024/03/05 02:33:42;;;;;;;40.80;21.88;;;7.90;99.90;;;;;;4982637;28;20039;-67
2024/03/05 02:36:09;;;;;;;38.88;22.60;;;7.80;99.90;;;;;;4983297;28;20054;-67
2024/03/05 02:38:35;;;;;;;36.78;21.90;;;7.90;99.90;;;;;;4983415;28;20048;-67
2024/03/05 02:41:01;;;;;;;41.30;21.73;;;7.80;99.90;;;;;;4983809;28;20047;-67
2024/03/05 02:43:27;;;;;;;37.25;21.88;;;7.80;99.90;;;;;;4944612;28;20093;-67
2024/03/05 02:45:52;;;;;;;42.72;20.75;;;7.80;99.90;;;;;;4983818;28;20053;-67
2024/03/05 02:48:18;;;;;;;39.28;21.38;;;7.80;99.90;;;;;;4983788;28;20048;-67
2024/03/05 02:50:44;;;;;;;34.95;21.48;;;7.80;99.90;;;;;;4949304;28;20048;-67
2024/03/05 02:53:10;;;;;;;48.05;22.55;;;7.80;99.90;;;;;;4982866;28;20065;-67
2024/03/05 02:55:38;;;;;;;41.67;22.52;;;7.70;99.90;;;;;;4966139;28;20050;-67
2024/03/05 02:58:06;;;;;;;42.45;21.63;;;7.80;99.90;;;;;;4949868;28;20053;-67
2024/03/05 03:00:32;;;;;;;43.85;22.40;;;7.80;99.90;;;;;;4965961;28;20130;-67
2024/03/05 03:02:59;;;;;;;39.25;21.23;;;7.80;99.90;;;;;;4965250;28;20042;-67
2024/03/05 03:05:25;;;;;;;40.45;20.90;;;7.70;99.90;;;;;;4965502;28;20476;-67
2024/03/05 03:07:51;;;;;;;37.63;20.48;;;7.60;99.90;;;;;;4965553;28;20046;-67
2024/03/05 03:10:18;;;;;;;42.00;20.83;;;7.70;99.90;;;;;;4965955;28;20056;-67
2024/03/05 03:12:49;;;;;;;41.03;21.42;;;7.60;99.90;;;;;;4965855;28;20893;-67
2024/03/05 03:15:20;;;;;;;40.65;20.65;;;7.60;99.90;;;;;;4982754;28;20602;-67
2024/03/05 03:17:47;;;;;;;39.97;21.23;;;7.60;99.90;;;;;;4962927;28;20425;-67
2024/03/05 03:20:16;;;;;;;41.45;20.77;;;7.60;99.90;;;;;;4962072;28;20054;-67
2024/03/05 03:22:45;;;;;;;45.10;23.65;;;7.50;99.90;;;;;;4946569;28;20047;-67
2024/03/05 03:25:12;;;;;;;45.05;22.17;;;7.50;99.90;;;;;;4981382;28;20137;-67
2024/03/05 03:27:42;;;;;;;34.17;20.55;;;7.40;99.90;;;;;;4981877;28;20046;-67
2024/03/05 03:30:09;;;;;;;43.47;21.08;;;7.40;99.90;;;;;;4982919;28;20447;-67
2024/03/05 03:32:35;;;;;;;38.63;21.08;;;7.40;99.90;;;;;;4982605;28;20065;-67
2024/03/05 03:35:05;;;;;;;42.75;22.38;;;7.40;99.90;;;;;;4966601;28;20485;-67
2024/03/05 03:37:32;;;;;;;;;;;7.40;99.90;;;;;;4983028;28;20493;-67
2024/03/05 03:39:58;;;;;;;36.65;20.55;;;7.40;99.90;;;;;;4981512;28;19928;-67
2024/03/05 03:42:24;;;;;;;45.42;21.88;;;7.40;99.90;;;;;;4964922;28;20093;-67
2024/03/05 03:44:51;;;;;;;41.80;22.02;;;7.40;99.90;;;;;;4982421;28;20497;-67
2024/03/05 03:47:18;;;;;;;42.15;21.80;;;7.30;99.90;;;;;;4962413;28;20487;-67
2024/03/05 03:49:48;;;;;;;40.88;21.40;;;7.40;99.90;;;;;;4965567;28;20129;-67
2024/03/05 03:52:18;;;;;;;43.58;21.05;;;7.40;99.90;;;;;;4940957;28;20043;-67
2024/03/05 03:54:44;;;;;;;41.55;22.30;;;7.40;99.90;;;;;;4982474;28;20049;-67
2024/03/05 03:57:10;;;;;;;34.75;20.95;;;7.40;99.90;;;;;;4981394;28;20046;-67
2024/03/05 03:59:36;;;;;;;40.08;21.67;;;7.40;99.90;;;;;;4961157;28;20053;-67
2024/03/05 04:02:03;;;;;;;44.67;22.13;;;7.30;99.90;;;;;;4980525;28;20043;-68
2024/03/05 04:04:30;;;;;;;44.40;23.17;;;7.30;99.90;;;;;;4964037;28;20137;-67
2024/03/05 04:06:55;;;;;;;39.42;22.30;;;7.30;99.90;;;;;;4937102;28;20428;-67
2024/03/05 04:09:21;;;;;;;42.33;21.20;;;7.30;99.90;;;;;;4958924;28;20046;-67
2024/03/05 04:11:47;;;;;;;41.42;21.42;;;7.20;99.90;;;;;;4945537;28;20042;-67
2024/03/05 04:14:12;;;;;;;39.28;20.25;;;7.20;99.90;;;;;;4935023;28;20050;-67
2024/03/05 04:16:39;;;;;;;37.95;21.85;;;7.20;99.90;;;;;;4945900;28;20405;-67
2024/03/05 04:19:06;;;;;;;39.92;20.48;;;7.20;99.90;;;;;;4975589;28;20104;-67
2024/03/05 04:21:42;;;;;;;43.78;20.60;;;7.20;99.90;;;;;;4981572;28;20505;-67
2024/03/05 04:24:11;;;;;;;40.90;20.95;;;7.10;99.90;;;;;;4963871;28;20050;-67
2024/03/05 04:26:38;;;;;;;39.75;20.35;;;7.20;99.90;;;;;;4961530;28;20046;-67
2024/03/05 04:29:06;;;;;;;37.47;19.70;;;7.10;99.90;;;;;;4963299;28;20042;-67
2024/03/05 04:31:34;;;;;;;38.45;21.35;;;7.10;99.90;;;;;;4960857;28;20464;-67
2024/03/05 04:34:02;;;;;;;32.65;19.52;;;7.10;99.90;;;;;;4971843;28;20090;-67
2024/03/05 04:36:29;;;;;;;31.80;19.90;;;7.00;99.90;;;;;;4976287;28;20144;-67
2024/03/05 04:38:55;;;;;;;42.15;21.98;;;7.00;99.90;;;;;;4967626;28;20053;-67
2024/03/05 04:41:21;;;;;;;40.15;21.40;;;7.00;99.90;;;;;;5001019;28;20057;-67
2024/03/05 04:43:48;;;;;;;36.42;18.98;;;7.00;99.90;;;;;;5000651;28;20500;-67
2024/03/05 04:46:15;;;;;;;39.00;20.00;;;6.90;99.90;;;;;;5016332;28;20061;-67
2024/03/05 04:48:41;;;;;;;39.65;20.77;;;6.90;99.90;;;;;;5014001;28;20520;-67
2024/03/05 04:51:10;;;;;;;41.10;19.08;;;6.90;99.90;;;;;;5001488;28;20100;-67
2024/03/05 04:53:36;;;;;;;37.17;19.88;;;6.80;99.90;;;;;;4988063;28;20049;-67
2024/03/05 04:56:06;;;;;;;35.85;18.08;;;6.80;99.90;;;;;;4997740;28;20476;-67
2024/03/05 04:58:32;;;;;;;37.53;19.13;;;6.80;99.90;;;;;;4985745;28;20501;-67
2024/03/05 05:00:58;;;;;;;40.38;18.77;;;6.80;99.90;;;;;;5005696;28;20053;-67
2024/03/05 05:03:24;;;;;;;34.72;19.80;;;6.70;99.90;;;;;;4984840;28;20055;-67
2024/03/05 05:05:53;;;;;;;34.70;18.55;;;6.80;99.90;;;;;;4971481;28;20084;-67
2024/03/05 05:08:19;;;;;;;35.83;18.27;;;6.70;99.90;;;;;;5003624;28;20095;-67
2024/03/05 05:10:47;;;;;;;38.40;17.85;;;6.60;99.90;;;;;;5003786;28;20050;-67
2024/03/05 05:13:13;;;;;;;38.08;17.90;;;6.70;99.90;;;;;;4986314;28;20081;-67
2024/03/05 05:15:39;;;;;;;38.95;18.02;;;6.60;99.90;;;;;;4987049;28;20053;-67
2024/03/05 05:18:05;;;;;;;31.73;17.33;;;6.60;99.90;;;;;;4970779;28;20108;-67
2024/03/05 05:20:31;;;;;;;34.95;16.75;;;6.60;99.90;;;;;;5004669;28;20069;-67
2024/03/05 05:22:57;;;;;;;33.78;15.70;;;6.60;99.90;;;;;;5005243;28;20042;-67
2024/03/05 05:25:23;;;;;;;30.65;16.27;;;6.50;99.90;;;;;;4963763;28;20045;-67
2024/03/05 05:27:50;;;;;;;31.08;16.38;;;6.60;99.90;;;;;;5004685;28;20396;-67
2024/03/05 05:30:21;;;;;;;24.83;15.35;;;6.50;99.90;;;;;;4984008;28;20060;-67
2024/03/05 05:32:47;;;;;;;27.90;15.68;;;6.50;99.90;;;;;;4986780;28;20112;-67
2024/03/05 05:35:14;;;;;;;20.25;14.18;;;6.50;99.90;;;;;;4981071;28;20060;-67
2024/03/05 05:37:40;;;;;;;27.35;15.07;;;6.50;99.90;;;;;;4984946;28;20050;-67
2024/03/05 05:40:10;;;;;;;31.25;15.18;;;6.60;99.90;;;;;;4985059;28;20050;-67
2024/03/05 05:42:40;;;;;;;33.08;14.80;;;6.60;99.90;;;;;;4951344;28;20049;-67
2024/03/05 05:45:08;;;;;;;24.38;15.23;;;6.60;99.90;;;;;;4950762;28;20471;-67
2024/03/05 05:47:54;;;;;;;36.28;15.55;;;6.50;99.90;;;;;;4984364;28;20053;-67
2024/03/05 05:50:28;;;;;;;25.48;14.60;;;6.50;99.90;;;;;;4984567;28;20416;-67
2024/03/05 05:52:55;;;;;;;21.48;13.73;;;6.50;99.90;;;;;;4984830;28;20047;-67
2024/03/05 05:55:24;;;;;;;22.83;14.75;;;6.40;99.90;;;;;;4984008;28;20057;-67
2024/03/05 05:57:51;;;;;;;23.75;13.32;;;6.40;99.90;;;;;;4966400;28;20429;-67
2024/03/05 06:00:37;;;;;;;30.85;14.45;;;6.40;99.90;;;;;;4965823;28;20534;-67
2024/03/05 06:03:07;;;;;;;21.85;12.20;;;6.30;99.90;;;;;;4966762;28;20480;-67
2024/03/05 06:05:36;;;;;;;24.45;13.63;;;6.30;99.90;;;;;;4966665;28;20233;-67
2024/03/05 06:08:12;;;;;;;23.63;13.93;;;6.30;99.90;;;;;;4984642;28;20061;-67
2024/03/05 06:10:43;;;;;;;23.38;13.15;;;6.30;99.90;;;;;;4960282;28;20058;-67
2024/03/05 06:13:10;;;;;;;19.83;12.25;;;6.30;99.90;;;;;;4966457;28;20051;-67
2024/03/05 06:15:38;;;;;;;22.13;12.68;;;6.20;99.90;;;;;;4966776;28;20112;-67
2024/03/05 06:18:05;;;;;;;25.60;12.73;;;6.30;99.90;;;;;;4970309;28;20342;-67
2024/03/05 06:20:32;;;;;;;21.92;12.20;;;6.20;99.90;;;;;;4967033;28;20054;-67
2024/03/05 06:22:59;;;;;;;21.48;12.23;;;6.20;99.90;;;;;;4984157;28;20079;-67
2024/03/05 06:25:26;;;;;;;22.13;12.15;;;6.10;99.90;;;;;;4976665;28;20459;-67
2024/03/05 06:27:53;;;;;;;25.27;12.90;;;6.10;99.90;;;;;;4962794;28;20137;-67
2024/03/05 06:30:19;;;;;;;24.48;11.70;;;6.10;99.90;;;;;;4966109;28;20046;-67
2024/03/05 06:32:47;;;;;;;21.00;12.05;;;6.10;99.90;;;;;;4981942;28;20401;-67
2024/03/05 06:35:13;;;;;;;24.67;12.68;;;6.10;99.90;;;;;;4970725;28;20080;-67
2024/03/05 06:37:40;;;;;;;25.55;12.20;;;6.00;99.90;;;;;;4983563;28;20440;-67
2024/03/05 06:40:11;;;;;;;26.33;12.02;;;6.10;99.90;;;;;;4949589;28;20054;-67
2024/03/05 06:42:41;;;;;;;22.80;12.07;;;6.10;99.90;;;;;;4975067;28;20501;-67
2024/03/05 06:45:14;;;;;;;30.73;13.23;;;6.10;99.90;;;;;;4983862;28;20412;-67
2024/03/05 06:47:54;;;;;;;19.75;11.35;;;6.10;99.90;;;;;;4982831;28;20060;-67
2024/03/05 06:50:23;;;;;;;26.00;10.88;;;6.10;99.90;;;;;;4947004;28;20157;-67
2024/03/05 06:58:19;;;;;;;28.08;12.10;;;6.00;99.90;;;;;;4960104;28;20496;-67
2024/03/05 07:00:46;;;;;;;22.83;11.00;;;6.00;99.90;;;;;;4967076;28;20056;-67
2024/03/05 07:03:15;;;;;;;18.73;10.75;;;5.90;99.90;;;;;;4967813;28;20049;-67
2024/03/05 07:05:42;;;;;;;23.87;11.53;;;6.00;99.90;;;;;;4930248;28;20051;-67
2024/03/05 07:08:08;;;;;;;23.65;11.55;;;5.90;99.90;;;;;;4971768;28;20097;-67
2024/03/05 07:10:37;;;;;;;23.42;11.10;;;6.00;99.90;;;;;;4964395;28;20129;-67
2024/03/05 07:13:03;;;;;;;24.73;11.93;;;6.00;99.90;;;;;;4977357;28;20038;-67
2024/03/05 07:15:29;;;;;;;26.95;12.07;;;5.90;99.90;;;;;;4981746;28;20142;-67
2024/03/05 07:17:55;;;;;;;24.38;10.70;;;5.90;99.90;;;;;;4949463;28;20038;-67
2024/03/05 07:20:24;;;;;;;25.27;11.60;;;5.90;99.90;;;;;;4947652;28;20482;-67
2024/03/05 07:22:54;;;;;;;22.20;11.18;;;6.00;99.90;;;;;;4981283;28;20526;-67
2024/03/05 07:25:24;;;;;;;24.20;11.70;;;6.00;99.90;;;;;;4982819;28;20050;-67
2024/03/05 07:27:51;;;;;;;24.67;11.35;;;6.00;99.90;;;;;;4968016;28;20046;-67
2024/03/05 07:30:19;;;;;;;30.45;12.10;;;6.00;99.90;;;;;;4982575;28;20183;-67
2024/03/05 07:32:47;;;;;;;28.08;10.90;;;6.00;99.90;;;;;;4978920;28;20491;-67
2024/03/05 07:35:17;;;;;;;21.48;11.25;;;5.90;99.90;;;;;;4973020;28;20144;-67
2024/03/05 07:37:47;;;;;;;28.70;12.18;;;6.00;99.90;;;;;;4982145;28;20053;-67
2024/03/05 07:40:16;;;;;;;25.35;12.40;;;5.90;99.90;;;;;;4974907;28;20042;-67
2024/03/05 07:42:49;;;;;;;29.15;12.00;;;5.80;99.90;;;;;;4982131;28;20161;-67
2024/03/05 07:45:15;;;;;;;24.55;10.75;;;5.90;99.90;;;;;;4981447;28;20169;-67
2024/03/05 07:47:45;;;;;;;23.15;12.23;;;5.90;99.90;;;;;;4958942;28;20423;-67
2024/03/05 07:50:12;;;;;;;31.88;11.50;;;5.80;99.90;;;;;;4981135;28;20042;-67
2024/03/05 07:52:47;;;;;;;30.55;12.20;;;5.90;99.90;;;;;;4962385;28;20082;-67
2024/03/05 07:55:17;;;;;;;22.15;11.68;;;5.80;99.90;;;;;;4953361;28;20825;-67
2024/03/05 07:57:44;;;;;;;35.38;13.13;;;5.80;99.90;;;;;;4954014;28;20046;-67
2024/03/05 08:00:17;;;;;;;20.10;10.82;;;5.80;99.90;;;;;;4981222;28;20501;-67
2024/03/05 08:02:48;;;;;;;21.02;12.18;;;5.80;99.90;;;;;;4964201;28;20046;-67
2024/03/05 08:05:17;;;;;;;30.65;12.32;;;5.70;99.90;;;;;;4963309;28;20054;-67
2024/03/05 08:07:46;;;;;;;24.08;11.82;;;5.80;99.90;;;;;;4964487;28;20058;-67
2024/03/05 08:10:12;;;;;;;31.48;13.23;;;5.80;99.90;;;;;;4963594;28;20061;-67
2024/03/05 08:12:43;;;;;;;24.58;12.00;;;5.80;99.90;;;;;;4968137;28;20767;-67
2024/03/05 08:15:15;;;;;;;19.73;11.00;;;5.80;99.90;;;;;;4980865;28;20058;-67
2024/03/05 08:17:45;;;;;;;24.48;11.82;;;5.80;99.90;;;;;;4965889;28;20520;-67
2024/03/05 08:20:16;;;;;;;16.60;10.80;;;5.70;99.90;;;;;;4981623;28;20078;-67
2024/03/05 08:22:42;;;;;;;;;;;5.80;99.90;;;;;;4982820;28;20030;-68
2024/03/05 08:25:12;;;;;;;13.70;9.13;;;5.80;99.90;;;;;;4981357;28;19933;-67
2024/03/05 08:27:38;;;;;;;;;;;5.70;99.90;;;;;;4961967;28;20051;-67
2024/03/05 08:30:09;;;;;;;17.50;10.27;;;5.70;99.90;;;;;;4978836;28;19932;-67
2024/03/05 08:32:38;;;;;;;19.17;9.63;;;5.70;99.90;;;;;;4983636;28;20637;-67
2024/03/05 08:35:11;;;;;;;17.55;10.25;;;5.70;99.90;;;;;;4985717;28;20042;-67
2024/03/05 08:37:46;;;;;;;17.88;10.15;;;5.70;99.90;;;;;;4985622;28;20153;-67
2024/03/05 08:40:20;;;;;;;16.52;9.60;;;5.70;99.90;;;;;;4965114;28;20126;-67
2024/03/05 08:42:48;;;;;;;14.20;8.80;;;5.80;99.90;;;;;;4950522;28;20042;-67
2024/03/05 08:45:16;;;;;;;15.07;8.90;;;5.70;99.90;;;;;;4968434;28;20120;-67
2024/03/05 08:47:48;;;;;;;15.27;9.60;;;5.70;99.90;;;;;;4969749;28;20496;-67
2024/03/05 08:50:14;;;;;;;14.02;9.63;;;5.70;99.90;;;;;;4970007;28;20057;-68
2024/03/05 08:52:40;;;;;;;17.25;8.85;;;5.70;99.90;;;;;;4965112;28;20054;-67
2024/03/05 08:55:08;;;;;;;14.57;9.30;;;5.60;99.90;;;;;;4942549;28;20058;-67
2024/03/05 08:57:37;;;;;;;15.13;8.73;;;5.60;99.90;;;;;;4967538;28;20050;-67
2024/03/05 09:00:05;;;;;;;16.27;9.30;;;5.60;99.90;;;;;;4957465;28;20052;-67
2024/03/05 09:02:31;;;;;;;15.07;9.38;;;5.70;99.90;;;;;;4985307;28;20042;-67
2024/03/05 09:04:57;;;;;;;15.95;9.52;;;5.60;99.90;;;;;;4966904;28;20048;-67
2024/03/05 09:07:23;;;;;;;17.52;9.88;;;5.70;99.90;;;;;;4968161;28;20046;-67
2024/03/05 09:09:49;;;;;;;14.23;9.88;;;5.60;99.90;;;;;;4984643;28;20042;-68
2024/03/05 09:12:15;;;;;;;14.18;9.75;;;5.60;99.90;;;;;;4985560;28;20097;-68
2024/03/05 09:14:41;;;;;;;16.73;9.60;;;5.60;99.90;;;;;;4984713;28;20074;-68
2024/03/05 09:17:09;;;;;;;20.48;10.57;;;5.60;99.90;;;;;;4967799;28;20038;-68
2024/03/05 09:19:36;;;;;;;14.73;10.55;;;5.60;99.90;;;;;;4962008;28;20056;-68
2024/03/05 09:22:05;;;;;;;20.73;11.40;;;5.60;99.90;;;;;;4957070;28;20100;-68
2024/03/05 09:24:32;;;;;;;18.13;10.95;;;5.60;99.90;;;;;;4968396;28;20470;-69
2024/03/05 09:27:01;;;;;;;17.13;11.18;;;5.70;99.90;;;;;;4953148;28;20093;-70
2024/03/05 09:29:27;;;;;;;14.35;10.55;;;5.60;99.90;;;;;;4962076;28;20072;-70
2024/03/05 09:31:53;;;;;;;16.40;9.88;;;5.70;99.90;;;;;;4943263;28;20054;-71
2024/03/05 09:34:19;;;;;;;18.80;10.43;;;5.70;99.90;;;;;;4978889;28;20113;-71
2024/03/05 09:36:45;;;;;;;18.52;10.20;;;5.70;99.90;;;;;;4957748;28;20046;-72
2024/03/05 09:39:11;;;;;;;21.27;10.10;;;5.70;99.90;;;;;;4929930;28;20039;-73
2024/03/05 09:41:43;;;;;;;18.55;10.27;;;5.70;99.90;;;;;;4932231;28;20106;-73
2024/03/05 09:44:10;;;;;;;12.25;9.27;;;5.70;99.90;;;;;;4980122;28;20046;-72
2024/03/05 09:46:42;;;;;;;14.70;8.88;;;5.70;99.90;;;;;;4951398;28;20109;-72
2024/03/05 09:49:11;;;;;;;12.77;8.23;;;5.70;99.90;;;;;;4978190;28;20046;-72
2024/03/05 09:51:40;;;;;;;12.30;7.53;;;5.70;99.90;;;;;;4958010;28;20622;-73
2024/03/05 09:54:10;;;;;;;14.17;8.37;;;5.80;99.90;;;;;;4958561;28;20309;-73
2024/03/05 09:56:41;;;;;;;9.93;7.70;;;5.80;99.90;;;;;;4956643;28;20306;-73
2024/03/05 09:59:16;;;;;;;11.23;7.82;;;5.80;99.90;;;;;;4950811;28;20038;-73
2024/03/05 10:01:45;;;;;;;10.52;7.25;;;5.80;99.90;;;;;;4966219;28;20467;-73
2024/03/05 10:04:18;;;;;;;12.85;7.53;;;5.90;99.90;;;;;;4934969;28;20440;-72
2024/03/05 10:06:45;;;;;;;13.35;8.23;;;5.80;99.90;;;;;;4933449;28;20122;-72
2024/03/05 10:09:12;;;;;;;8.85;6.97;;;5.80;99.90;;;;;;4938152;28;20442;-72
2024/03/05 10:11:38;;;;;;;10.70;7.00;;;5.80;99.90;;;;;;4967442;28;20054;-73
2024/03/05 10:14:11;;;;;;;10.35;7.00;;;5.80;99.90;;;;;;4966926;28;20578;-72
2024/03/05 10:16:40;;;;;;;8.00;6.57;;;5.90;99.90;;;;;;4967884;28;20081;-73
2024/03/05 10:19:13;;;;;;;8.77;6.22;;;5.90;99.90;;;;;;4966639;28;20480;-73
2024/03/05 10:21:39;;;;;;;8.38;6.43;;;6.00;99.90;;;;;;4957295;28;20057;-72
2024/03/05 10:24:05;;;;;;;10.02;6.38;;;6.00;99.90;;;;;;4959676;28;20047;-72
2024/03/05 10:26:32;;;;;;;9.85;6.80;;;6.00;99.90;;;;;;4964789;28;20058;-72
2024/03/05 10:29:00;;;;;;;9.10;6.30;;;6.00;99.90;;;;;;4966126;28;20050;-72
2024/03/05 10:31:29;;;;;;;8.68;6.35;;;6.00;99.90;;;;;;4963527;28;20067;-72
2024/03/05 10:33:58;;;;;;;7.07;6.20;;;6.10;99.90;;;;;;4963193;28;20142;-72
2024/03/05 10:36:28;;;;;;;7.80;6.63;;;6.10;99.90;;;;;;4960310;28;20058;-72
2024/03/05 10:38:55;;;;;;;10.33;5.87;;;6.00;99.90;;;;;;4984029;28;20511;-72
2024/03/05 10:41:28;;;;;;;8.82;6.70;;;6.10;99.90;;;;;;4983884;28;20712;-72
2024/03/05 10:44:00;;;;;;;8.75;6.68;;;6.10;99.90;;;;;;4968776;28;20139;-71
2024/03/05 10:46:29;;;;;;;8.68;6.25;;;6.20;99.90;;;;;;4969049;28;20144;-72
2024/03/05 10:48:58;;;;;;;10.40;6.85;;;6.20;99.90;;;;;;4984435;28;20221;-71
2024/03/05 10:51:32;;;;;;;8.85;5.93;;;6.20;99.90;;;;;;4964454;28;20034;-72
2024/03/05 10:54:01;;;;;;;8.48;6.70;;;6.20;99.90;;;;;;4988492;28;20049;-72
2024/03/05 10:56:29;;;;;;;11.32;7.50;;;6.20;99.90;;;;;;4984902;28;20045;-71
2024/03/05 11:01:39;;;;;;;8.85;6.55;;;6.10;99.90;;;;;;4981756;28;20108;-71
2024/03/05 11:04:22;;;;;;;12.20;7.55;;;6.10;99.90;;;;;;4984881;28;20074;-72
2024/03/05 11:06:52;;;;;;;10.45;6.70;;;6.10;99.90;;;;;;4983683;28;20432;-71
2024/03/05 11:09:19;;;;;;;;;;;6.20;99.90;;;;;;4984437;28;20081;-71
2024/03/05 11:12:00;;;;;;;14.00;7.28;;;6.00;99.90;;;;;;5002378;28;19925;-71
2024/03/05 11:14:27;;;;;;;12.45;6.85;;;6.00;99.90;;;;;;4984855;28;20146;-71
2024/03/05 11:17:11;;;;;;;11.82;7.85;;;6.00;99.90;;;;;;4983487;28;20085;-71
2024/03/05 11:19:41;;;;;;;12.88;7.60;;;6.10;99.90;;;;;;4966747;28;21701;-71
2024/03/05 11:25:01;;;;;;;;;;;6.00;99.90;;;;;;4997705;28;20522;-66
2024/03/05 11:27:34;;;;;;;15.48;7.80;;;6.00;99.90;;;;;;4997805;28;19925;-66
2024/03/05 11:30:20;;;;;;;13.10;8.13;;;6.10;99.90;;;;;;4994193;28;20103;-66
2024/03/05 11:32:50;;;;;;;14.15;9.13;;;6.10;99.90;;;;;;4989554;28;20137;-66
2024/03/05 11:35:18;;;;;;;;;;;6.10;99.90;;;;;;4989764;28;20448;-66
2024/03/05 11:37:47;;;;;;;17.35;9.27;;;6.10;99.90;;;;;;5001491;28;20375;-66
2024/03/05 11:40:15;;;;;;;13.93;9.88;;;6.10;99.90;;;;;;4995883;28;20081;-66
2024/03/05 11:42:47;;;;;;;13.70;9.23;;;6.20;99.90;;;;;;4997825;28;20053;-66
2024/03/05 11:45:46;;;;;;;22.95;10.00;;;6.10;99.90;;;;;;4997758;28;20050;-66
2024/03/05 11:48:16;;;;;;;16.02;10.63;;;6.20;99.90;;;;;;4993766;28;20053;-66
2024/03/05 11:50:43;;;;;;;19.40;10.43;;;6.20;99.90;;;;;;4993117;28;20054;-67
2024/03/05 11:53:10;;;;;;;15.30;10.57;;;6.30;99.90;;;;;;4998014;28;20050;-66
2024/03/05 11:55:37;;;;;;;15.88;10.50;;;6.20;99.90;;;;;;4995311;28;20162;-66
2024/03/05 11:58:03;;;;;;;16.30;9.93;;;6.30;99.90;;;;;;4998960;28;20858;-66
2024/03/05 12:00:29;;;;;;;18.05;10.82;;;6.30;99.90;;;;;;4998199;28;20045;-66
2024/03/05 12:02:58;;;;;;;15.80;10.05;;;6.30;99.90;;;;;;4997943;28;20068;-66
2024/03/05 12:05:25;;;;;;;19.02;10.32;;;6.30;99.90;;;;;;4998624;28;20042;-66
2024/03/05 12:08:08;;;;;;;16.10;9.68;;;6.40;99.90;;;;;;5003607;28;20062;-66
2024/03/05 12:10:36;;;;;;;16.55;9.95;;;6.30;99.90;;;;;;5001313;28;20057;-66
2024/03/05 12:13:02;;;;;;;14.38;8.63;;;6.40;99.90;;;;;;4993168;28;20507;-66
2024/03/05 12:15:35;;;;;;;15.75;8.73;;;6.40;99.90;;;;;;4982318;28;20077;-66
2024/03/05 12:18:10;;;;;;;17.38;10.85;;;6.30;99.90;;;;;;5001589;28;20046;-66
2024/03/05 12:20:42;;;;;;;15.90;10.20;;;6.30;99.90;;;;;;4996467;28;20436;-67
2024/03/05 12:23:14;;;;;;;16.02;10.15;;;6.30;99.90;;;;;;4999745;28;20180;-66
2024/03/05 12:25:40;;;;;;;13.60;9.40;;;6.30;99.90;;;;;;4992792;28;20520;-66
2024/03/05 12:28:06;;;;;;;15.18;9.90;;;6.30;99.90;;;;;;4990984;28;20038;-66
2024/03/05 12:30:34;;;;;;;15.70;9.70;;;6.30;99.90;;;;;;5001955;28;20117;-66
2024/03/05 12:33:00;;;;;;;14.35;9.68;;;6.20;99.90;;;;;;4972353;28;20065;-66
2024/03/05 12:35:27;;;;;;;11.75;8.48;;;6.20;99.90;;;;;;4997024;28;20388;-66
2024/03/05 12:37:53;;;;;;;13.68;9.13;;;6.20;99.90;;;;;;4990660;28;20120;-66
2024/03/05 12:40:21;;;;;;;12.38;8.40;;;6.20;99.90;;;;;;4993476;28;20420;-66
2024/03/05 12:42:48;;;;;;;16.25;10.50;;;6.20;99.90;;;;;;4995700;28;20093;-65
2024/03/05 12:45:21;;;;;;;18.17;10.35;;;6.20;99.90;;;;;;4991399;28;20108;-66
2024/03/05 12:47:57;;;;;;;19.02;11.00;;;6.10;99.90;;;;;;4989452;28;20104;-66
2024/03/05 12:50:42;;;;;;;18.95;10.73;;;6.10;99.90;;;;;;4985383;28;20049;-66
2024/03/05 12:53:09;;;;;;;16.30;10.25;;;6.20;99.90;;;;;;4984507;28;20095;-66
2024/03/05 12:55:35;;;;;;;17.17;10.85;;;6.20;99.90;;;;;;4999330;28;20385;-66
2024/03/05 12:58:08;;;;;;;18.83;11.68;;;6.20;99.90;;;;;;4994468;28;20057;-66